Montalba, Texas
Current Conditions -  °F | °C
As of 1:55 PM on Saturday 25 Oct 2014 (Local Time) from KPSN Reporting Station
Clear Clear  
Wind Chill: 82°   Ceiling: Unl
Heat Index: 83°   Visibility: 10mi
Dew Point: 62°   Wind: 6mph
Humidity: 51%   Direction: 230°SW
Pressure: 30.15"   Gusts: NA
Location:  31.88°N, 95.73°W
Report Text: KPSN 251855Z AUTO 23005KT 10SM CLR 28/17 A3015 RMK AO2 T02800169
Loading
Personal Weather Stations






























Interactive Weather Map
Tropical Storm Tracking
New forecast layout! Learn more

10-Day Weather Forecast

Advertisements
Track Severe Weather on mobile